Darstellungsparameter: Aktuell verwendete Einstellungen:
Skalierung der Graphiken ... ?
xyx+y,   Skalierungsfaktor:      Skalierung: Modus: x, Faktor: 1
Darstellungszeitraum ... ?
Vom - - bis: - -   Zeitraum: 29.06.2022 - 29.06.2022
Min/Max/Avg-Anzeige ... ?
Zeige MMA aktuell
Zeige MMA Monat
Zeige MMA alles
Zeige --A aktuell
Zeige --A Monat
Zeige --A alles
Keine MMA-Anzeige
MMA:
Keine MMA-Graphiken
MMA-Basis: 29.06.2022 - 29.06.2022
Quicknavigation für Darstellung... ?
Tage:      1T, 2T, 3T, 5T -1T -2T -3T -5T +1T +2T +3T +5T
Wochen: 1W, 2W, 3W -1W -2W -3W +1W +2W +3W
Monate: 1M, 3M, 6M -1M -3M -6M +1M +3M +6M
Jahre:    1J, 3J, 5J, 10J -1J -3J -5J -10J +1J +3J +5J +10J
Nutze für die Darstellung ... ?
Originaldaten oder Mittelwerte auf ...
Stundenbasis Tagesbasis Wochenbasis
Monatsbasis Jahresbasis      Datenbasis: Original-Daten
Darstellen als:
Statistik (Auto) Statistik J:M      Darstellung:
Zur Graphik,    zurück zur Übersicht aller Sensoren.
 
Tabellarische Datenbersicht: ?
 
Sensor: Nr:Datum:Temp:Abs-Feuchte:Windchill:Wind:
Aussen-T/F 1 29-06-2022 02:00:00 15.9 C 11.24 g/m*3 15.9 C 0 km/h
2 29-06-2022 02:05:00 15.8 C 11.17 g/m*3 15.8 C 0 km/h
3 29-06-2022 02:10:00 15.8 C 11.31 g/m*3 15.8 C 0 km/h
4 29-06-2022 02:15:00 15.6 C 11.04 g/m*3 15.6 C 0 km/h
5 29-06-2022 02:20:00 15.6 C 11.04 g/m*3 15.6 C 0 km/h
6 29-06-2022 02:25:00 15.4 C 10.9 g/m*3 15.4 C 0 km/h
7 29-06-2022 02:30:00 15.4 C 11.04 g/m*3 15.4 C 0 km/h
8 29-06-2022 02:35:00 15.4 C 11.04 g/m*3 15.4 C 0 km/h
9 29-06-2022 02:40:00 15.3 C 11.1 g/m*3 15.3 C 0 km/h
10 29-06-2022 02:45:00 15.3 C 11.1 g/m*3 15.3 C 0 km/h
11 29-06-2022 02:50:00 15.3 C 11.1 g/m*3 15.3 C 0 km/h
12 29-06-2022 02:55:00 15.2 C 11.03 g/m*3 15.2 C 0 km/h
13 29-06-2022 03:00:00 15.2 C 11.03 g/m*3 15.2 C 0 km/h
14 29-06-2022 03:05:00 15.2 C 11.03 g/m*3 15.2 C 0 km/h
15 29-06-2022 03:10:00 15.2 C 11.03 g/m*3 15.2 C 0 km/h
16 29-06-2022 03:15:00 15.2 C 11.16 g/m*3 15.2 C 0 km/h
17 29-06-2022 03:20:00 15.2 C 11.16 g/m*3 15.2 C 0 km/h
18 29-06-2022 03:25:00 15.2 C 11.16 g/m*3 15.2 C 0 km/h
19 29-06-2022 03:30:00 15.2 C 11.16 g/m*3 15.2 C 0 km/h
20 29-06-2022 03:35:00 15.2 C 11.16 g/m*3 15.2 C 0 km/h
21 29-06-2022 03:40:00 15.2 C 11.16 g/m*3 15.2 C 0 km/h
22 29-06-2022 03:45:00 15.3 C 11.36 g/m*3 15.3 C 0 km/h
23 29-06-2022 03:50:00 15.4 C 11.43 g/m*3 15.4 C 0 km/h
24 29-06-2022 03:55:00 15.4 C 11.43 g/m*3 15.4 C 0 km/h
25 29-06-2022 04:00:00 15.5 C 11.5 g/m*3 15.5 C 0 km/h
Sensor: Nr:Datum:Temp:Abs-Feuchte:Windchill:Wind:
Aussen-T/F 26 29-06-2022 04:05:00 15.6 C 11.57 g/m*3 15.6 C 0 km/h
27 29-06-2022 04:10:00 15.6 C 11.57 g/m*3 15.6 C 0 km/h
28 29-06-2022 04:15:00 15.7 C 11.64 g/m*3 15.7 C 0 km/h
29 29-06-2022 04:20:00 15.7 C 11.64 g/m*3 15.7 C 0 km/h
30 29-06-2022 04:25:00 15.8 C 11.71 g/m*3 15.8 C 0 km/h
31 29-06-2022 04:30:00 15.8 C 11.71 g/m*3 15.8 C 0 km/h
32 29-06-2022 04:35:00 15.9 C 11.78 g/m*3 15.9 C 0 km/h
33 29-06-2022 04:40:00 15.9 C 11.92 g/m*3 15.9 C 0 km/h
34 29-06-2022 04:45:00 15.9 C 11.92 g/m*3 15.9 C 0 km/h
35 29-06-2022 04:50:00 15.9 C 11.78 g/m*3 15.9 C 0 km/h
36 29-06-2022 04:55:00 15.9 C 11.78 g/m*3 15.9 C 0 km/h
37 29-06-2022 05:00:00 15.9 C 11.78 g/m*3 15.9 C 0 km/h
38 29-06-2022 05:05:00 15.9 C 11.92 g/m*3 15.9 C 0 km/h
39 29-06-2022 05:10:00 15.9 C 11.78 g/m*3 15.9 C 0 km/h
40 29-06-2022 05:15:00 16 C 11.85 g/m*3 16 C 0 km/h
41 29-06-2022 05:20:00 16.1 C 11.93 g/m*3 16.1 C 0 km/h
42 29-06-2022 05:25:00 16.1 C 11.93 g/m*3 16.1 C 0 km/h
43 29-06-2022 05:30:00 16.1 C 11.93 g/m*3 16.1 C 0 km/h
44 29-06-2022 05:35:00 16.1 C 11.93 g/m*3 16.1 C 0 km/h
45 29-06-2022 05:40:00 16.1 C 11.93 g/m*3 16.1 C 0 km/h
46 29-06-2022 05:45:00 16.1 C 11.93 g/m*3 16.1 C 0 km/h
47 29-06-2022 05:50:00 16.1 C 11.93 g/m*3 16.1 C 0 km/h
48 29-06-2022 05:55:00 16.1 C 11.93 g/m*3 16.1 C 0 km/h
49 29-06-2022 06:00:00 16.1 C 11.93 g/m*3 16.1 C 0 km/h
50 29-06-2022 06:05:00 16.1 C 11.93 g/m*3 16.1 C 0 km/h
Sensor: Nr:Datum:Temp:Abs-Feuchte:Windchill:Wind:
Aussen-T/F 51 29-06-2022 06:10:00 16.1 C 11.93 g/m*3 16.1 C 0 km/h
52 29-06-2022 06:15:00 16.1 C 11.93 g/m*3 16.1 C 0 km/h
53 29-06-2022 06:20:00 16.1 C 11.93 g/m*3 16.1 C 0 km/h
54 29-06-2022 06:25:00 16.1 C 11.93 g/m*3 16.1 C 0 km/h
55 29-06-2022 06:30:00 16.1 C 11.93 g/m*3 16.1 C 0 km/h
56 29-06-2022 06:35:00 16.1 C 11.93 g/m*3 16.1 C 0 km/h
57 29-06-2022 06:40:00 16.1 C 11.93 g/m*3 16.1 C 0 km/h
58 29-06-2022 06:45:00 16.1 C 11.93 g/m*3 16.1 C 0 km/h
59 29-06-2022 06:50:00 16.1 C 11.79 g/m*3 16.1 C 0 km/h
60 29-06-2022 06:55:00 16.1 C 11.93 g/m*3 16.1 C 0 km/h
61 29-06-2022 07:00:00 16.2 C 12 g/m*3 16.2 C 0 km/h
62 29-06-2022 07:05:00 16.2 C 12 g/m*3 16.2 C 0 km/h
63 29-06-2022 07:10:00 16.3 C 12.07 g/m*3 16.3 C 0 km/h
64 29-06-2022 07:15:00 16.3 C 12.21 g/m*3 16.3 C 0 km/h
65 29-06-2022 07:20:00 16.4 C 12.28 g/m*3 16.4 C 0 km/h
66 29-06-2022 07:25:00 16.4 C 12.28 g/m*3 16.4 C 0 km/h
67 29-06-2022 07:30:00 16.4 C 12.14 g/m*3 16.4 C 0 km/h
68 29-06-2022 07:35:00 16.5 C 12.22 g/m*3 16.5 C 0 km/h
69 29-06-2022 07:40:00 16.6 C 12.43 g/m*3 16.6 C 0 km/h
70 29-06-2022 07:45:00 16.7 C 12.51 g/m*3 16.7 C 0 km/h
71 29-06-2022 07:50:00 16.8 C 12.58 g/m*3 16.8 C 0 km/h
72 29-06-2022 07:55:00 16.8 C 12.44 g/m*3 16.8 C 0 km/h
73 29-06-2022 08:00:00 16.9 C 12.51 g/m*3 16.9 C 0 km/h
74 29-06-2022 08:05:00 17 C 12.59 g/m*3 17 C 0 km/h
75 29-06-2022 08:10:00 17.2 C 12.74 g/m*3 17.2 C 0 km/h
Sensor: Nr:Datum:Temp:Abs-Feuchte:Windchill:Wind:
Aussen-T/F 76 29-06-2022 08:15:00 17.2 C 12.59 g/m*3 17.2 C 0 km/h
77 29-06-2022 08:20:00 17.3 C 12.67 g/m*3 17.3 C 0 km/h
78 29-06-2022 08:25:00 17.4 C 12.6 g/m*3 17.4 C 0 km/h
79 29-06-2022 08:30:00 17.5 C 12.52 g/m*3 17.5 C 0 km/h
80 29-06-2022 08:35:00 17.7 C 12.67 g/m*3 17.7 C 0 km/h
81 29-06-2022 08:40:00 17.8 C 12.75 g/m*3 17.8 C 0 km/h
82 29-06-2022 08:45:00 17.9 C 12.67 g/m*3 17.9 C 0 km/h
83 29-06-2022 08:50:00 18.1 C 12.82 g/m*3 18.1 C 0 km/h
84 29-06-2022 08:55:00 18.1 C 12.67 g/m*3 18.1 C 0 km/h
85 29-06-2022 09:00:00 18.2 C 12.59 g/m*3 18.2 C 0 km/h
86 29-06-2022 09:05:00 18.3 C 12.82 g/m*3 18.3 C 0 km/h
87 29-06-2022 09:10:00 18.3 C 12.66 g/m*3 18.3 C 0 km/h
88 29-06-2022 09:15:00 18.4 C 12.58 g/m*3 18.4 C 1.6 km/h
89 29-06-2022 09:20:00 18.5 C 12.66 g/m*3 18.5 C 0 km/h
90 29-06-2022 09:25:00 18.6 C 12.57 g/m*3 18.6 C 0 km/h
91 29-06-2022 09:30:00 18.6 C 12.57 g/m*3 18.6 C 0 km/h
92 29-06-2022 09:35:00 18.7 C 12.81 g/m*3 18.7 C 0 km/h
93 29-06-2022 09:40:00 18.7 C 12.81 g/m*3 18.7 C 0 km/h
94 29-06-2022 09:45:00 18.8 C 13.05 g/m*3 18.8 C 0 km/h
95 29-06-2022 09:50:00 18.8 C 12.88 g/m*3 18.8 C 0 km/h
96 29-06-2022 09:55:00 18.8 C 12.88 g/m*3 18.8 C 0 km/h
97 29-06-2022 10:00:00 18.8 C 12.72 g/m*3 18.8 C 0 km/h
98 29-06-2022 10:05:00 18.8 C 12.88 g/m*3 18.8 C 0 km/h
99 29-06-2022 10:10:00 18.8 C 13.05 g/m*3 18.8 C 0 km/h
100 29-06-2022 10:15:00 18.9 C 13.12 g/m*3 18.9 C 0 km/h
Sensor: Nr:Datum:Temp:Abs-Feuchte:Windchill:Wind:
Aussen-T/F 101 29-06-2022 10:20:00 18.9 C 12.96 g/m*3 18.9 C 0 km/h
102 29-06-2022 10:25:00 18.9 C 12.96 g/m*3 18.9 C 1.6 km/h
103 29-06-2022 10:30:00 18.9 C 12.96 g/m*3 18.9 C 4.8 km/h
104 29-06-2022 10:35:00 18.9 C 12.96 g/m*3 18.9 C 4.8 km/h
105 29-06-2022 10:40:00 18.9 C 12.8 g/m*3 18.9 C 0 km/h
106 29-06-2022 10:45:00 18.9 C 12.96 g/m*3 18.9 C 0 km/h
107 29-06-2022 10:50:00 19.1 C 13.28 g/m*3 19.1 C 0 km/h
108 29-06-2022 10:55:00 19.1 C 13.44 g/m*3 19.1 C 0 km/h
109 29-06-2022 11:00:00 19.3 C 13.77 g/m*3 19.3 C 0 km/h
110 29-06-2022 11:05:00 19.3 C 13.77 g/m*3 19.3 C 0 km/h
111 29-06-2022 11:10:00 19.4 C 13.18 g/m*3 19.4 C 0 km/h
112 29-06-2022 11:15:00 19.4 C 13.35 g/m*3 19.4 C 0 km/h
113 29-06-2022 11:20:00 19.5 C 12.92 g/m*3 19.5 C 1.6 km/h
114 29-06-2022 11:25:00 19.6 C 12.83 g/m*3 19.6 C 1.6 km/h
115 29-06-2022 11:30:00 19.6 C 12.49 g/m*3 19.6 C 0 km/h
116 29-06-2022 11:35:00 19.7 C 12.57 g/m*3 19.7 C 0 km/h
117 29-06-2022 11:40:00 19.7 C 12.23 g/m*3 19.7 C 1.6 km/h
118 29-06-2022 11:45:00 19.7 C 12.57 g/m*3 19.7 C 0 km/h
119 29-06-2022 11:50:00 19.9 C 13.57 g/m*3 19.9 C 0 km/h
120 29-06-2022 11:55:00 19.9 C 13.74 g/m*3 19.9 C 0 km/h
121 29-06-2022 12:00:00 20.1 C 14.08 g/m*3 20.1 C 0 km/h
122 29-06-2022 12:05:00 20.1 C 14.25 g/m*3 20.1 C 0 km/h
123 29-06-2022 12:10:00 20.1 C 14.25 g/m*3 20.1 C 0 km/h
124 29-06-2022 12:15:00 20 C 14.17 g/m*3 20 C 0 km/h
125 29-06-2022 12:20:00 19.9 C 14.26 g/m*3 19.9 C 0 km/h
Sensor: Nr:Datum:Temp:Abs-Feuchte:Windchill:Wind:
Aussen-T/F 126 29-06-2022 12:25:00 19.9 C 14.43 g/m*3 19.9 C 0 km/h
127 29-06-2022 12:30:00 19.8 C 14.35 g/m*3 19.8 C 0 km/h
128 29-06-2022 12:35:00 19.8 C 14.18 g/m*3 19.8 C 0 km/h

Legende:
   Min
   Max


Maximal/Minimal-Werte vom 29.06.2022 - 29.06.2022

Sensor Min Max Avg
Temp
(Aussen-T/F)
15.2 °C
29-06-2022  02:55:00
20.1 °C
29-06-2022  12:00:00
17.15 °C
Abs-Feuchte
(Aussen-T/F)
10.9 g/m*3
29-06-2022  02:25:00
14.43 g/m*3
29-06-2022  12:25:00
12.19 g/m*3
Windchill
(Aussen-T/F)
15.2 C
29-06-2022  02:55:00
20.1 C
29-06-2022  12:00:00
17.02 C

Die Daten stammen von einer Davis Vantage Pro 2 Wetter-Station und werden unter Linux mit der Software wview2wettercgi und aufbereitet. Alle Angaben erfolgen ohne Gewähr für ihre Vollständigkeit oder Richtigkeit.
Kontakt: Rainer Krienke krienke@uni-koblenz.de . Meine Webseiten an der Uni Koblenz oder privat.
Version: $Revision: 0.78 $